Time;durP1;ratioP1;P1;durP2;ratioP2;P2;SDS_P1;SDS_P2;PMS_P1;PMS_P2;Temp;Humidity;BMP_temperature;BMP_pressure;BME280_temperature;BME280_humidity;BME280_pressure;Samples;Min_cycle;Max_cycle;Signal;HPM_P1;HPM_P2
2020/12/11 00:01:41;;;;;;;31.87;14.07;;;1.10;99.90;;;;;;4945688;28;20324;-77
2020/12/11 00:04:08;;;;;;;33.10;14.37;;;1.20;99.90;;;;;;4946225;28;20474;-77
2020/12/11 00:06:35;;;;;;;33.10;14.30;;;1.20;99.90;;;;;;4948639;28;20293;-77
2020/12/11 00:09:01;;;;;;;32.47;13.60;;;1.20;99.90;;;;;;4944490;28;20487;-77
2020/12/11 00:11:29;;;;;;;35.37;14.90;;;1.20;99.90;;;;;;4944170;28;20316;-77
2020/12/11 00:13:56;;;;;;;32.87;14.13;;;1.20;99.90;;;;;;4945296;28;20234;-77
2020/12/11 00:16:23;;;;;;;32.40;14.20;;;1.20;99.90;;;;;;4946750;28;20215;-77
2020/12/11 00:18:49;;;;;;;34.30;14.20;;;1.20;99.90;;;;;;4945161;28;20664;-77
2020/12/11 00:21:16;;;;;;;31.17;13.97;;;1.20;99.90;;;;;;4944252;28;20316;-77
2020/12/11 00:23:43;;;;;;;32.00;14.17;;;1.10;99.90;;;;;;4944787;28;20461;-77
2020/12/11 00:26:10;;;;;;;31.23;13.50;;;1.20;99.90;;;;;;4945253;28;20982;-77
2020/12/11 00:28:36;;;;;;;29.33;13.70;;;1.20;99.90;;;;;;4946435;28;20990;-77
2020/12/11 00:31:03;;;;;;;30.77;13.10;;;1.20;99.90;;;;;;4946880;28;20783;-77
2020/12/11 00:33:29;;;;;;;34.03;15.03;;;1.20;99.90;;;;;;4945375;28;20466;-77
2020/12/11 00:35:55;;;;;;;34.07;14.87;;;1.10;99.90;;;;;;4946071;28;20212;-77
2020/12/11 00:38:22;;;;;;;29.93;13.27;;;1.10;99.90;;;;;;4942983;28;20357;-77
2020/12/11 00:40:49;;;;;;;30.43;13.77;;;1.10;99.90;;;;;;4945328;28;20489;-77
2020/12/11 00:43:15;;;;;;;30.40;13.60;;;1.20;99.90;;;;;;4948679;28;20911;-77
2020/12/11 00:45:42;;;;;;;29.83;13.60;;;1.20;99.90;;;;;;4948704;28;20206;-77
2020/12/11 00:48:08;;;;;;;32.53;14.03;;;1.20;99.90;;;;;;4950578;28;20218;-77
2020/12/11 00:50:34;;;;;;;27.97;13.50;;;1.10;99.90;;;;;;4949010;28;20228;-77
2020/12/11 00:53:01;;;;;;;36.57;14.17;;;1.20;99.90;;;;;;4949232;28;20691;-76
2020/12/11 00:55:27;;;;;;;34.87;14.20;;;1.10;99.90;;;;;;4949411;28;20247;-76
2020/12/11 00:57:54;;;;;;;31.37;13.53;;;1.10;99.90;;;;;;4952359;28;20210;-77
2020/12/11 01:00:21;;;;;;;34.30;14.47;;;1.10;99.90;;;;;;4951736;28;20233;-76
2020/12/11 01:02:47;;;;;;;35.00;14.60;;;1.10;99.90;;;;;;4951386;28;20277;-76
2020/12/11 01:05:14;;;;;;;32.07;13.63;;;1.10;99.90;;;;;;4951342;28;21081;-74
2020/12/11 01:07:40;;;;;;;34.30;14.67;;;1.10;99.90;;;;;;4945399;28;20468;-75
2020/12/11 01:10:06;;;;;;;33.93;14.60;;;1.20;99.90;;;;;;4949064;28;20222;-75
2020/12/11 01:12:33;;;;;;;28.07;13.00;;;1.20;99.90;;;;;;4949249;28;20661;-75
2020/12/11 01:15:00;;;;;;;31.50;14.40;;;1.10;99.90;;;;;;4949382;28;20211;-75
2020/12/11 01:17:26;;;;;;;37.97;15.23;;;1.20;99.90;;;;;;4947126;28;20495;-75
2020/12/11 01:19:53;;;;;;;37.07;15.20;;;1.10;99.90;;;;;;4947429;28;20229;-75
2020/12/11 01:22:19;;;;;;;32.90;14.73;;;1.10;99.90;;;;;;4944422;28;20207;-75
2020/12/11 01:24:45;;;;;;;34.27;14.40;;;1.10;99.90;;;;;;4948038;28;20293;-75
2020/12/11 01:27:12;;;;;;;30.67;14.27;;;1.20;99.90;;;;;;4948053;28;20210;-75
2020/12/11 01:29:39;;;;;;;31.97;13.90;;;1.20;99.90;;;;;;4948509;28;20237;-75
2020/12/11 01:32:06;;;;;;;33.93;15.07;;;1.20;99.90;;;;;;4947107;28;20202;-76
2020/12/11 01:34:33;;;;;;;29.67;13.57;;;1.20;99.90;;;;;;4946672;28;20465;-75
2020/12/11 01:37:03;;;;;;;31.73;15.07;;;1.20;99.90;;;;;;4945240;28;20209;-75
2020/12/11 01:39:30;;;;;;;33.57;14.33;;;1.20;99.90;;;;;;4952590;28;20483;-76
2020/12/11 01:41:57;;;;;;;31.47;14.33;;;1.20;99.90;;;;;;4947565;28;20229;-75
2020/12/11 01:44:23;;;;;;;34.90;15.23;;;1.30;99.90;;;;;;4947032;28;21653;-75
2020/12/11 01:46:50;;;;;;;34.93;14.83;;;1.30;99.90;;;;;;4946409;28;20217;-75
2020/12/11 01:49:18;;;;;;;33.17;14.67;;;1.30;99.90;;;;;;4948325;28;20511;-75
2020/12/11 01:51:45;;;;;;;31.03;14.43;;;1.30;99.90;;;;;;4947059;28;21203;-75
2020/12/11 01:54:11;;;;;;;29.73;13.97;;;1.30;99.90;;;;;;4948020;28;20971;-75
2020/12/11 01:56:43;;;;;;;34.03;15.20;;;1.30;99.90;;;;;;4946450;28;20592;-75
2020/12/11 01:59:19;;;;;;;32.67;15.07;;;1.20;99.90;;;;;;4946969;28;20465;-76
2020/12/11 02:01:47;;;;;;;32.77;14.37;;;1.30;99.90;;;;;;4948457;28;20485;-76
2020/12/11 02:04:14;;;;;;;37.17;15.97;;;1.30;99.90;;;;;;4946512;28;21535;-75
2020/12/11 02:06:42;;;;;;;28.23;12.73;;;1.30;99.90;;;;;;4946120;28;20302;-76
2020/12/11 02:09:09;;;;;;;34.30;15.30;;;1.30;99.90;;;;;;4947135;28;20237;-75
2020/12/11 02:11:36;;;;;;;34.83;15.67;;;1.20;99.90;;;;;;4946723;28;20234;-76
2020/12/11 02:14:02;;;;;;;30.97;14.63;;;1.30;99.90;;;;;;4946571;28;20301;-75
2020/12/11 02:16:28;;;;;;;31.87;14.80;;;1.30;99.90;;;;;;4945125;28;20583;-75
2020/12/11 02:18:55;;;;;;;35.17;15.10;;;1.30;99.90;;;;;;4946509;28;20325;-75
2020/12/11 02:21:21;;;;;;;34.00;14.70;;;1.30;99.90;;;;;;4947178;28;20339;-75
2020/12/11 02:23:48;;;;;;;32.30;14.77;;;1.30;99.90;;;;;;4946253;28;20329;-75
2020/12/11 02:26:15;;;;;;;34.07;15.07;;;1.30;99.90;;;;;;4945911;28;20564;-76
2020/12/11 02:28:41;;;;;;;31.10;14.03;;;1.30;99.90;;;;;;4946748;28;20509;-76
2020/12/11 02:31:08;;;;;;;33.30;14.20;;;1.30;99.90;;;;;;4944668;28;20219;-75
2020/12/11 02:33:34;;;;;;;32.97;14.50;;;1.40;99.90;;;;;;4945515;28;20252;-74
2020/12/11 02:36:00;;;;;;;36.07;14.63;;;1.40;99.90;;;;;;4946343;28;20220;-76
2020/12/11 02:38:27;;;;;;;31.33;14.57;;;1.40;99.90;;;;;;4942671;28;20198;-75
2020/12/11 02:40:57;;;;;;;29.53;13.57;;;1.40;99.90;;;;;;4947881;28;20226;-77
2020/12/11 02:43:23;;;;;;;28.87;14.00;;;1.40;99.90;;;;;;4946983;28;20296;-76
2020/12/11 02:45:52;;;;;;;30.10;14.97;;;1.50;99.90;;;;;;4945251;28;20302;-74
2020/12/11 02:48:19;;;;;;;28.40;13.43;;;1.40;99.90;;;;;;4947631;28;20221;-77
2020/12/11 02:50:46;;;;;;;34.23;15.57;;;1.40;99.90;;;;;;4945467;28;20324;-77
2020/12/11 02:53:12;;;;;;;34.97;15.27;;;1.40;99.90;;;;;;4947093;28;20786;-76
2020/12/11 02:55:39;;;;;;;31.93;14.83;;;1.40;99.90;;;;;;4947969;28;20317;-76
2020/12/11 02:58:06;;;;;;;33.47;15.50;;;1.40;99.90;;;;;;4944653;28;20464;-77
2020/12/11 03:00:33;;;;;;;37.47;14.67;;;1.40;99.90;;;;;;4946855;28;20217;-77
2020/12/11 03:02:59;;;;;;;31.73;15.40;;;1.40;99.90;;;;;;4945088;28;20320;-77
2020/12/11 03:05:25;;;;;;;32.47;15.10;;;1.40;99.90;;;;;;4945958;28;20361;-77
2020/12/11 03:07:52;;;;;;;31.40;14.60;;;1.40;99.90;;;;;;4944340;28;20222;-76
2020/12/11 03:10:18;;;;;;;31.87;14.70;;;1.40;99.90;;;;;;4944702;28;20230;-76
2020/12/11 03:12:45;;;;;;;31.10;14.43;;;1.40;99.90;;;;;;4945280;28;21490;-75
2020/12/11 03:15:12;;;;;;;32.87;14.50;;;1.40;99.90;;;;;;4946110;28;20216;-77
2020/12/11 03:17:38;;;;;;;31.10;15.27;;;1.30;99.90;;;;;;4946600;28;20962;-77
2020/12/11 03:20:05;;;;;;;34.10;14.80;;;1.40;99.90;;;;;;4945189;28;20233;-76
2020/12/11 03:22:31;;;;;;;35.07;15.77;;;1.40;99.90;;;;;;4946175;28;20309;-76
2020/12/11 03:24:57;;;;;;;29.23;14.80;;;1.40;99.90;;;;;;4945345;28;20298;-76
2020/12/11 03:27:24;;;;;;;33.93;15.37;;;1.40;99.90;;;;;;4944713;28;20210;-75
2020/12/11 03:29:50;;;;;;;29.40;13.90;;;1.40;99.90;;;;;;4946427;28;20231;-76
2020/12/11 03:32:17;;;;;;;32.07;14.77;;;1.40;99.90;;;;;;4946368;28;20212;-76
2020/12/11 03:34:44;;;;;;;29.57;14.37;;;1.40;99.90;;;;;;4945957;28;20201;-75
2020/12/11 03:37:11;;;;;;;33.63;14.80;;;1.40;99.90;;;;;;4945755;28;20197;-76
2020/12/11 03:39:37;;;;;;;33.57;15.77;;;1.40;99.90;;;;;;4945795;28;20206;-75
2020/12/11 03:42:04;;;;;;;32.07;14.50;;;1.40;99.90;;;;;;4944304;28;20687;-76
2020/12/11 03:44:30;;;;;;;31.07;15.33;;;1.40;99.90;;;;;;4947990;28;20569;-77
2020/12/11 03:46:56;;;;;;;35.60;15.33;;;1.30;99.90;;;;;;4942115;28;20586;-76
2020/12/11 03:49:24;;;;;;;35.33;16.23;;;1.30;99.90;;;;;;4944381;28;20235;-76
2020/12/11 03:51:53;;;;;;;33.20;15.37;;;1.30;99.90;;;;;;4944373;28;20512;-74
2020/12/11 03:54:19;;;;;;;29.33;14.80;;;1.40;99.90;;;;;;4941928;28;20209;-76
2020/12/11 03:56:48;;;;;;;31.07;14.93;;;1.30;99.90;;;;;;4943518;28;20218;-76
2020/12/11 03:59:14;;;;;;;33.47;15.07;;;1.30;99.90;;;;;;4944891;28;20790;-77
2020/12/11 04:01:40;;;;;;;30.77;15.40;;;1.30;99.90;;;;;;4944320;28;20494;-77
2020/12/11 04:04:08;;;;;;;35.77;16.07;;;1.40;99.90;;;;;;4946003;28;20693;-76
2020/12/11 04:06:35;;;;;;;34.50;15.60;;;1.30;99.90;;;;;;4942270;28;20210;-75
2020/12/11 04:09:01;;;;;;;29.57;14.67;;;1.30;99.90;;;;;;4946349;28;20492;-76
2020/12/11 04:11:28;;;;;;;35.47;16.17;;;1.30;99.90;;;;;;4944912;28;20325;-76
2020/12/11 04:13:54;;;;;;;34.73;15.47;;;1.30;99.90;;;;;;4943409;28;20206;-76
2020/12/11 04:16:21;;;;;;;32.60;15.93;;;1.40;99.90;;;;;;4950899;28;20568;-77
2020/12/11 04:18:47;;;;;;;32.20;16.33;;;1.40;99.90;;;;;;4948466;28;20550;-76
2020/12/11 04:21:14;;;;;;;33.83;15.43;;;1.40;99.90;;;;;;4949425;28;20723;-75
2020/12/11 04:23:42;;;;;;;36.37;16.47;;;1.40;99.90;;;;;;4949415;28;20249;-76
2020/12/11 04:26:09;;;;;;;33.70;15.57;;;1.40;99.90;;;;;;4950064;28;20217;-77
2020/12/11 04:28:35;;;;;;;36.20;16.73;;;1.40;99.90;;;;;;4951056;28;20222;-77
2020/12/11 04:31:02;;;;;;;35.53;16.30;;;1.40;99.90;;;;;;4948932;28;20356;-76
2020/12/11 04:33:28;;;;;;;33.83;15.80;;;1.30;99.90;;;;;;4949795;28;20782;-76
2020/12/11 04:35:54;;;;;;;35.30;15.73;;;1.30;99.90;;;;;;4948697;28;20209;-77
2020/12/11 04:38:21;;;;;;;33.47;16.10;;;1.40;99.90;;;;;;4951120;28;20469;-77
2020/12/11 04:40:54;;;;;;;33.60;16.10;;;1.40;99.90;;;;;;4951178;28;20232;-77
2020/12/11 04:43:21;;;;;;;35.07;16.67;;;1.40;99.90;;;;;;4947378;28;20213;-76
2020/12/11 04:45:49;;;;;;;34.27;16.17;;;1.40;99.90;;;;;;4949891;28;20210;-77
2020/12/11 04:48:16;;;;;;;30.57;14.67;;;1.40;99.90;;;;;;4951882;28;20644;-77
2020/12/11 04:50:44;;;;;;;34.80;15.60;;;1.40;99.90;;;;;;4949219;28;20491;-75
2020/12/11 04:53:15;;;;;;;36.60;14.80;;;1.40;99.90;;;;;;4949775;28;20234;-77
2020/12/11 04:55:43;;;;;;;36.17;16.23;;;1.50;99.90;;;;;;4950187;28;20738;-76
2020/12/11 04:58:15;;;;;;;32.23;14.90;;;1.50;99.90;;;;;;4948750;28;20539;-77
2020/12/11 05:00:42;;;;;;;34.97;15.97;;;1.50;99.90;;;;;;4947650;28;20492;-77
2020/12/11 05:03:13;;;;;;;31.13;15.40;;;1.50;99.90;;;;;;4952273;28;20605;-75
2020/12/11 05:08:17;;;;;;;29.53;15.10;;;1.50;99.90;;;;;;4979958;28;20311;-73
2020/12/11 05:10:44;;;;;;;31.00;15.03;;;1.50;99.90;;;;;;4983126;28;20232;-71
2020/12/11 05:13:18;;;;;;;31.63;16.47;;;1.50;99.90;;;;;;4981419;28;21026;-72
2020/12/11 05:15:44;;;;;;;31.43;15.70;;;1.50;99.90;;;;;;4983649;28;20204;-72
2020/12/11 05:18:18;;;;;;;35.27;16.90;;;1.50;99.90;;;;;;4983380;28;20466;-73
2020/12/11 05:20:45;;;;;;;33.77;16.60;;;1.40;99.90;;;;;;4986850;28;20275;-70
2020/12/11 05:23:11;;;;;;;34.30;16.30;;;1.40;99.90;;;;;;4995082;28;20547;-72
2020/12/11 05:25:38;;;;;;;31.30;14.90;;;1.40;99.90;;;;;;4985510;28;20217;-71
2020/12/11 05:28:04;;;;;;;29.83;14.70;;;1.50;99.90;;;;;;4995109;28;20319;-71
2020/12/11 05:30:31;;;;;;;32.20;15.87;;;1.40;99.90;;;;;;4990861;28;20366;-72
2020/12/11 05:32:59;;;;;;;32.43;15.50;;;1.40;99.90;;;;;;4978290;28;20677;-71
2020/12/11 05:35:28;;;;;;;29.17;14.53;;;1.40;99.90;;;;;;4988778;28;20220;-70
2020/12/11 05:37:57;;;;;;;32.17;15.53;;;1.40;99.90;;;;;;4991459;28;20215;-68
2020/12/11 05:40:27;;;;;;;30.43;15.53;;;1.40;99.90;;;;;;4991112;28;20222;-70
2020/12/11 05:43:15;;;;;;;31.53;14.57;;;1.40;99.90;;;;;;4984544;28;20292;-71
2020/12/11 05:45:50;;;;;;;29.67;15.50;;;1.40;99.90;;;;;;4986347;28;20292;-70
2020/12/11 05:48:17;;;;;;;33.27;15.67;;;1.40;99.90;;;;;;4980548;28;20463;-69
2020/12/11 05:50:44;;;;;;;31.53;14.90;;;1.40;99.90;;;;;;4980565;28;20509;-70
2020/12/11 05:53:11;;;;;;;30.63;15.30;;;1.50;99.90;;;;;;4975724;28;20490;-70
2020/12/11 05:55:37;;;;;;;36.03;15.17;;;1.50;99.90;;;;;;4980943;28;20969;-71
2020/12/11 05:58:07;;;;;;;29.00;14.87;;;1.40;99.90;;;;;;4979266;28;20610;-69
2020/12/11 06:00:33;;;;;;;32.73;14.73;;;1.40;99.90;;;;;;4977948;28;20246;-69
2020/12/11 06:03:02;;;;;;;29.13;13.93;;;1.50;99.90;;;;;;4972181;28;20466;-69
2020/12/11 06:05:29;;;;;;;26.10;13.57;;;1.40;99.90;;;;;;4974530;28;20465;-69
2020/12/11 06:08:00;;;;;;;27.33;14.23;;;1.40;99.90;;;;;;4967509;28;20468;-68
2020/12/11 06:10:26;;;;;;;27.90;13.67;;;1.50;99.90;;;;;;4974391;28;21930;-69
2020/12/11 06:12:53;;;;;;;27.33;13.50;;;1.50;99.90;;;;;;4962770;28;21812;-69
2020/12/11 06:15:27;;;;;;;27.83;13.57;;;1.40;99.90;;;;;;4961289;28;20205;-69
2020/12/11 06:17:58;;;;;;;31.20;14.53;;;1.40;99.90;;;;;;4963520;28;20552;-68
2020/12/11 06:20:27;;;;;;;25.50;12.63;;;1.40;99.90;;;;;;4960492;28;20224;-68
2020/12/11 06:22:53;;;;;;;26.80;13.47;;;1.40;99.90;;;;;;4962028;28;20243;-68
2020/12/11 06:25:31;;;;;;;24.30;12.53;;;1.50;99.90;;;;;;4962480;28;20202;-69
2020/12/11 06:27:58;;;;;;;25.97;12.33;;;1.40;99.90;;;;;;4963334;28;20215;-69
2020/12/11 06:30:26;;;;;;;23.13;12.20;;;1.50;99.90;;;;;;4963405;28;20228;-69
2020/12/11 06:32:53;;;;;;;25.60;12.83;;;1.50;99.90;;;;;;4959253;28;20208;-67
2020/12/11 06:35:20;;;;;;;23.17;11.87;;;1.40;99.90;;;;;;4961473;28;20395;-68
2020/12/11 06:37:47;;;;;;;25.17;12.40;;;1.50;99.90;;;;;;4970572;28;20208;-69
2020/12/11 06:40:13;;;;;;;26.23;12.47;;;1.50;99.90;;;;;;4975049;28;20596;-70
2020/12/11 06:42:42;;;;;;;27.00;13.00;;;1.50;99.90;;;;;;4973790;28;20213;-70
2020/12/11 06:45:20;;;;;;;28.17;12.47;;;1.50;99.90;;;;;;4971230;28;20212;-68
2020/12/11 06:47:57;;;;;;;26.27;12.37;;;1.50;99.90;;;;;;4970626;28;20215;-69
2020/12/11 06:50:25;;;;;;;21.57;11.87;;;1.50;99.90;;;;;;4973731;28;20237;-69
2020/12/11 06:52:53;;;;;;;24.53;12.47;;;1.50;99.90;;;;;;4965904;28;20208;-70
2020/12/11 06:55:19;;;;;;;25.63;12.07;;;1.50;99.90;;;;;;4970443;28;20212;-71
2020/12/11 06:57:48;;;;;;;26.20;12.23;;;1.50;99.90;;;;;;4974711;28;20204;-70
2020/12/11 07:00:38;;;;;;;25.93;12.80;;;1.50;99.90;;;;;;4975658;28;20857;-70
2020/12/11 07:03:24;;;;;;;30.30;13.97;;;1.50;99.90;;;;;;4973931;28;20297;-71
2020/12/11 07:06:09;;;;;;;29.33;13.33;;;1.40;99.90;;;;;;4985484;28;20223;-70
2020/12/11 07:08:37;;;;;;;23.73;11.63;;;1.50;99.90;;;;;;4990177;28;20214;-71
2020/12/11 07:11:09;;;;;;;24.90;12.37;;;1.50;99.90;;;;;;4986361;28;20489;-71
2020/12/11 07:13:37;;;;;;;27.50;12.87;;;1.50;99.90;;;;;;4988624;28;20241;-71
2020/12/11 07:16:05;;;;;;;29.50;13.40;;;1.50;99.90;;;;;;4988428;28;20456;-69
2020/12/11 07:18:31;;;;;;;28.50;13.63;;;1.50;99.90;;;;;;4988168;28;20467;-72
2020/12/11 07:20:59;;;;;;;27.77;13.60;;;1.50;99.90;;;;;;4989818;28;20751;-73
2020/12/11 07:23:25;;;;;;;29.83;13.63;;;1.60;99.90;;;;;;4991242;28;20502;-71
2020/12/11 07:25:55;;;;;;;29.07;13.07;;;1.60;99.90;;;;;;4988983;28;20299;-71
2020/12/11 07:28:21;;;;;;;25.60;11.87;;;1.60;99.90;;;;;;4989238;28;20734;-73
2020/12/11 07:30:48;;;;;;;27.30;12.77;;;1.60;99.90;;;;;;4988599;28;20228;-70
2020/12/11 07:33:16;;;;;;;28.10;12.43;;;1.60;99.90;;;;;;4992217;28;20727;-71
2020/12/11 07:35:49;;;;;;;28.47;13.47;;;1.50;99.90;;;;;;4987842;28;20236;-71
2020/12/11 07:38:17;;;;;;;30.73;14.10;;;1.60;99.90;;;;;;4986348;28;20213;-69
2020/12/11 07:40:44;;;;;;;28.50;13.33;;;1.60;99.90;;;;;;4988071;28;20217;-70
2020/12/11 07:43:12;;;;;;;28.13;12.80;;;1.60;99.90;;;;;;4988868;28;20537;-72
2020/12/11 07:45:40;;;;;;;32.60;14.47;;;1.60;99.90;;;;;;4987960;28;20206;-71
2020/12/11 07:48:07;;;;;;;31.63;15.03;;;1.60;99.90;;;;;;4988363;28;20217;-71
2020/12/11 07:50:34;;;;;;;35.47;14.83;;;1.60;99.90;;;;;;4988101;28;20571;-71
2020/12/11 07:53:06;;;;;;;31.73;14.53;;;1.70;99.90;;;;;;4984022;28;20275;-70
2020/12/11 07:55:33;;;;;;;29.57;15.17;;;1.60;99.90;;;;;;4984645;28;20296;-71
2020/12/11 07:58:01;;;;;;;30.07;14.37;;;1.60;99.90;;;;;;4984110;28;20288;-71
2020/12/11 08:00:28;;;;;;;31.87;14.80;;;1.70;99.90;;;;;;4987711;28;20746;-71
2020/12/11 08:02:56;;;;;;;36.93;15.10;;;1.70;99.90;;;;;;4986827;28;20304;-71
2020/12/11 08:05:23;;;;;;;34.67;14.60;;;1.70;99.90;;;;;;4987731;28;20209;-71
2020/12/11 08:07:52;;;;;;;31.23;14.60;;;1.70;99.90;;;;;;4986566;28;20741;-71
2020/12/11 08:10:20;;;;;;;34.87;15.27;;;1.70;99.90;;;;;;4983676;28;20573;-71
2020/12/11 08:12:47;;;;;;;36.03;14.67;;;1.70;99.90;;;;;;4981970;28;20717;-71
2020/12/11 08:15:29;;;;;;;29.60;14.17;;;1.70;99.90;;;;;;4985609;28;20494;-72
2020/12/11 08:18:20;;;;;;;33.93;15.20;;;1.70;99.90;;;;;;4983081;28;20211;-71
2020/12/11 08:20:51;;;;;;;31.63;14.03;;;1.70;99.90;;;;;;4987222;28;20701;-71
2020/12/11 08:23:37;;;;;;;34.50;15.23;;;1.80;99.90;;;;;;4981945;28;20293;-70
2020/12/11 08:26:11;;;;;;;37.10;16.60;;;1.80;99.90;;;;;;4981998;28;20240;-71
2020/12/11 08:28:38;;;;;;;34.33;15.10;;;1.80;99.90;;;;;;4983335;28;20301;-71
2020/12/11 08:31:20;;;;;;;33.47;14.90;;;1.80;99.90;;;;;;4988073;28;20312;-71
2020/12/11 08:33:48;;;;;;;32.60;14.63;;;1.80;99.90;;;;;;4980972;28;20222;-72
2020/12/11 08:36:22;;;;;;;34.97;15.87;;;1.80;99.90;;;;;;4984554;28;20277;-72
2020/12/11 08:39:20;;;;;;;36.67;16.50;;;1.80;99.90;;;;;;4984564;28;20235;-71
2020/12/11 08:42:01;;;;;;;35.00;15.57;;;1.90;99.90;;;;;;4899636;29;20280;-69
2020/12/11 08:44:41;;;;;;;31.20;15.00;;;1.90;99.90;;;;;;4976703;28;20215;-69
2020/12/11 08:47:32;;;;;;;35.23;16.20;;;2.00;99.90;;;;;;4982358;28;20216;-70
2020/12/11 08:50:04;;;;;;;36.47;16.50;;;1.90;99.90;;;;;;4981676;28;20224;-70
2020/12/11 08:52:30;;;;;;;39.13;17.23;;;1.90;99.90;;;;;;4978673;28;20217;-70
2020/12/11 08:54:57;;;;;;;35.03;15.97;;;1.90;99.90;;;;;;4974846;28;20201;-69
2020/12/11 08:57:28;;;;;;;37.13;16.63;;;2.00;99.90;;;;;;4974289;28;20197;-70
2020/12/11 08:59:54;;;;;;;34.83;15.83;;;1.90;99.90;;;;;;4981389;28;20288;-70
2020/12/11 09:02:21;;;;;;;37.57;16.40;;;2.00;99.90;;;;;;4987113;28;20278;-71
2020/12/11 09:04:48;;;;;;;34.93;16.17;;;2.10;99.90;;;;;;4988324;28;20308;-70
2020/12/11 09:07:14;;;;;;;34.67;15.53;;;2.10;99.90;;;;;;4984294;28;20709;-69
2020/12/11 09:09:41;;;;;;;39.37;17.27;;;2.20;99.90;;;;;;4978429;28;20232;-71
2020/12/11 09:12:07;;;;;;;38.87;17.27;;;2.20;99.90;;;;;;4983820;28;20559;-71
2020/12/11 09:14:34;;;;;;;38.37;15.90;;;2.20;99.90;;;;;;4986187;28;20673;-71
2020/12/11 09:17:00;;;;;;;33.00;15.13;;;2.20;99.90;;;;;;4981378;28;20219;-70
2020/12/11 09:19:27;;;;;;;35.70;15.57;;;2.30;99.90;;;;;;4985499;28;20201;-67
2020/12/11 09:21:54;;;;;;;35.37;16.33;;;2.30;99.90;;;;;;4983220;28;20318;-68
2020/12/11 09:24:20;;;;;;;36.57;16.10;;;2.30;99.90;;;;;;4987166;28;20209;-69
2020/12/11 09:26:47;;;;;;;39.20;17.10;;;2.30;99.90;;;;;;4983440;28;20377;-69
2020/12/11 09:29:15;;;;;;;33.17;16.00;;;2.40;99.90;;;;;;4983993;28;20228;-69
2020/12/11 09:31:45;;;;;;;38.40;16.37;;;2.50;99.90;;;;;;4984836;28;20600;-69
2020/12/11 09:34:11;;;;;;;40.77;17.57;;;2.40;99.90;;;;;;4984650;28;20201;-70
2020/12/11 09:36:43;;;;;;;36.00;16.00;;;2.50;99.90;;;;;;4989736;28;20783;-70
2020/12/11 09:39:10;;;;;;;38.90;17.30;;;2.50;99.90;;;;;;4987096;28;20742;-69
2020/12/11 09:41:38;;;;;;;36.03;16.50;;;2.50;99.90;;;;;;4985138;28;20312;-69
2020/12/11 09:47:06;;;;;;;36.07;15.10;;;2.40;99.90;;;;;;4958766;28;20738;-69
2020/12/11 09:49:38;;;;;;;35.93;15.47;;;2.50;99.90;;;;;;4978710;28;20247;-69
2020/12/11 09:52:21;;;;;;;37.13;16.50;;;2.60;99.90;;;;;;4981850;28;20235;-69
2020/12/11 09:54:47;;;;;;;35.00;15.97;;;2.60;99.90;;;;;;4985370;28;20208;-68
2020/12/11 09:57:13;;;;;;;36.93;16.27;;;2.70;99.90;;;;;;4981664;28;20219;-68
2020/12/11 09:59:47;;;;;;;32.13;15.60;;;2.80;99.90;;;;;;4983807;28;20623;-68
2020/12/11 10:02:19;;;;;;;36.83;16.07;;;2.80;99.90;;;;;;4988959;28;20221;-68
2020/12/11 10:04:47;;;;;;;32.27;15.40;;;2.90;99.90;;;;;;4983427;28;20214;-68
2020/12/11 10:07:14;;;;;;;34.57;15.40;;;2.90;99.90;;;;;;4984573;28;20659;-68
2020/12/11 10:09:42;;;;;;;32.70;15.37;;;2.90;99.90;;;;;;4980767;28;20236;-68
2020/12/11 10:12:09;;;;;;;34.03;15.20;;;2.90;99.90;;;;;;4980617;28;20209;-68
2020/12/11 10:14:37;;;;;;;34.10;15.17;;;3.00;99.90;;;;;;4984540;28;20213;-68
2020/12/11 10:17:03;;;;;;;32.43;14.90;;;3.00;99.90;;;;;;4982860;28;20237;-68
2020/12/11 10:19:30;;;;;;;34.27;15.77;;;3.00;99.90;;;;;;4984912;28;20285;-68
2020/12/11 10:21:57;;;;;;;34.47;15.40;;;3.10;99.90;;;;;;4986226;28;20422;-67
2020/12/11 10:24:24;;;;;;;35.20;16.30;;;3.20;99.90;;;;;;4986998;28;20288;-68
2020/12/11 10:26:51;;;;;;;32.97;15.43;;;3.20;99.90;;;;;;4986239;28;20280;-67
2020/12/11 10:29:17;;;;;;;37.63;15.50;;;3.30;99.90;;;;;;4985626;28;20236;-67
2020/12/11 10:31:44;;;;;;;27.43;13.43;;;3.30;99.90;;;;;;4984948;28;20561;-69
2020/12/11 10:34:11;;;;;;;31.93;15.33;;;3.20;99.90;;;;;;4983861;28;20210;-68
2020/12/11 10:36:38;;;;;;;35.03;16.27;;;3.20;99.90;;;;;;4981369;28;20299;-68
2020/12/11 10:39:05;;;;;;;29.80;14.50;;;3.20;99.90;;;;;;4983364;28;20768;-68
2020/12/11 10:41:32;;;;;;;33.50;14.77;;;3.30;99.90;;;;;;4987323;28;20312;-69
2020/12/11 10:43:59;;;;;;;31.10;14.73;;;3.20;99.90;;;;;;4984594;28;20229;-69
2020/12/11 10:46:26;;;;;;;28.47;13.77;;;3.20;99.90;;;;;;4986087;28;20260;-69
2020/12/11 10:48:52;;;;;;;33.00;15.10;;;3.20;99.90;;;;;;4985600;28;20303;-69
2020/12/11 10:51:19;;;;;;;32.87;14.80;;;3.20;99.90;;;;;;4987869;28;20228;-70
2020/12/11 10:53:46;;;;;;;30.23;14.10;;;3.30;99.90;;;;;;4982347;28;20198;-69
2020/12/11 10:56:13;;;;;;;32.33;14.60;;;3.30;99.90;;;;;;4994791;28;20301;-69
2020/12/11 10:58:41;;;;;;;33.13;14.93;;;3.30;99.90;;;;;;4990129;28;20292;-69
2020/12/11 11:01:09;;;;;;;33.00;15.50;;;3.30;99.90;;;;;;4987042;28;20220;-69
2020/12/11 11:03:36;;;;;;;35.63;15.07;;;3.30;99.90;;;;;;4989584;28;20212;-69
2020/12/11 11:06:10;;;;;;;31.83;14.87;;;3.30;99.90;;;;;;5026135;23;20815;-73
2020/12/11 11:08:39;;;;;;;32.90;15.47;;;3.30;99.90;;;;;;4989957;28;20203;-73
2020/12/11 11:11:06;;;;;;;34.53;15.83;;;3.30;99.90;;;;;;4990522;28;20309;-73
2020/12/11 11:13:40;;;;;;;31.50;14.87;;;3.30;99.90;;;;;;4989119;28;20217;-73
2020/12/11 11:16:07;;;;;;;33.07;14.93;;;3.30;99.90;;;;;;4984644;28;20286;-73
2020/12/11 11:18:42;;;;;;;35.07;15.60;;;3.30;99.90;;;;;;4992662;28;20241;-74
2020/12/11 11:24:11;;;;;;;34.83;15.63;;;3.20;99.90;;;;;;4989207;28;20208;-73
2020/12/11 11:26:45;;;;;;;34.17;15.93;;;3.20;99.90;;;;;;4990935;28;20218;-73
2020/12/11 11:29:11;;;;;;;32.33;14.73;;;3.20;99.90;;;;;;4988314;28;20299;-73
2020/12/11 11:31:39;;;;;;;34.37;15.23;;;3.20;99.90;;;;;;4990309;28;20319;-73
2020/12/11 11:34:05;;;;;;;32.13;14.57;;;3.30;99.90;;;;;;4992248;28;20216;-73
2020/12/11 11:36:33;;;;;;;37.27;14.73;;;3.40;99.90;;;;;;4987106;28;20535;-73
2020/12/11 11:38:59;;;;;;;31.03;14.77;;;3.50;99.90;;;;;;4982152;28;20667;-73
2020/12/11 11:44:34;;;;;;;32.77;14.53;;;3.50;99.90;;;;;;4989073;28;20208;-73
2020/12/11 11:47:03;;;;;;;35.77;14.67;;;3.50;99.90;;;;;;4990273;28;20300;-73
2020/12/11 11:49:33;;;;;;;31.97;14.63;;;3.40;99.90;;;;;;4990341;28;20291;-73
2020/12/11 11:52:10;;;;;;;36.97;14.13;;;3.40;99.90;;;;;;4992025;28;20701;-73
2020/12/11 11:54:37;;;;;;;32.60;14.57;;;3.40;99.90;;;;;;4989136;28;20336;-73
2020/12/11 11:57:03;;;;;;;30.37;14.30;;;3.40;99.90;;;;;;4990796;28;20308;-72
2020/12/11 11:59:30;;;;;;;32.17;13.33;;;3.40;99.90;;;;;;4987322;28;20299;-73
2020/12/11 12:01:56;;;;;;;30.93;14.33;;;3.30;99.90;;;;;;4986304;28;20224;-72
2020/12/11 12:04:23;;;;;;;34.67;15.13;;;3.30;99.90;;;;;;4985112;28;20221;-73
2020/12/11 12:06:50;;;;;;;37.97;13.80;;;3.30;99.90;;;;;;4988144;28;20229;-73
2020/12/11 12:09:17;;;;;;;36.87;15.30;;;3.30;99.90;;;;;;4984844;28;20210;-73
2020/12/11 12:11:44;;;;;;;32.93;14.53;;;3.30;99.90;;;;;;4984766;28;20234;-73
2020/12/11 12:14:11;;;;;;;31.50;14.50;;;3.30;99.90;;;;;;4984107;28;20389;-73
2020/12/11 12:16:38;;;;;;;41.87;15.27;;;3.30;99.90;;;;;;4990274;28;20610;-73
2020/12/11 12:19:07;;;;;;;31.97;14.13;;;3.20;99.90;;;;;;4985512;28;20481;-73
2020/12/11 12:21:41;;;;;;;34.53;14.97;;;3.20;99.90;;;;;;4990446;28;20234;-73
2020/12/11 12:29:36;;;;;;;33.80;14.63;;;3.30;99.90;;;;;;4987914;28;20242;-73
2020/12/11 12:32:06;;;;;;;34.73;14.73;;;3.30;99.90;;;;;;4985928;28;20238;-73
2020/12/11 12:34:47;;;;;;;31.10;13.90;;;3.30;99.90;;;;;;4988518;28;20227;-73
2020/12/11 12:40:18;;;;;;;35.73;14.80;;;3.30;99.90;;;;;;4990517;28;20213;-73
2020/12/11 12:43:00;;;;;;;36.63;15.37;;;3.30;99.90;;;;;;4985918;28;20637;-73
2020/12/11 12:45:27;;;;;;;33.30;14.70;;;3.20;99.90;;;;;;4989561;28;20588;-73
2020/12/11 12:47:53;;;;;;;35.57;14.90;;;3.30;99.90;;;;;;4986580;28;20555;-73
2020/12/11 12:50:20;;;;;;;37.57;15.83;;;3.30;99.90;;;;;;4988355;28;20261;-73
2020/12/11 12:52:48;;;;;;;34.47;14.87;;;3.30;99.90;;;;;;4987777;28;20346;-73
2020/12/11 12:55:17;;;;;;;33.00;15.37;;;3.20;99.90;;;;;;4986533;28;20682;-73
2020/12/11 12:57:46;;;;;;;34.40;14.77;;;3.30;99.90;;;;;;4990235;28;20212;-73
2020/12/11 13:00:21;;;;;;;32.20;14.40;;;3.30;99.90;;;;;;4983956;28;20312;-73
2020/12/11 13:03:09;;;;;;;36.80;15.83;;;3.30;99.90;;;;;;4991425;28;20692;-73